Weather at Kazimierza Mała

Public forecast

Using degrees Celsius for public forecast. Weather courtesy of forecast.io.

Closest aviation weather report (METAR) to Kazimierza Mała

Closest report is Kraków John Paul II International Airport, 31.1 nm (57.6 km) WSW.

2024/05/26 17:30 (retrieved 31 minutes ago)

EPKK 261730Z 29013KT 9999 -TSRA SCT040CB SCT066 17/12 Q1020 RESHRA

Closest aviation forecast (TAF) to Kazimierza Mała

Closest forecast is Kraków John Paul II International Airport, 31.1 nm (57.6 km) WSW.

2024/05/26 18:33 (retrieved 0 seconds ago)

TAF EPKK 261730Z 2618/2718 14006KT CAVOK TEMPO 2618/2619 VRB15G35KT 2500 TSRA BKN040CB TEMPO 2701/2705 0500 FG PROB40 TEMPO 2712/2718 VRB18G35KT 3000 TSRA BKN050CB